AirNav   Duncan Aviation - Near you to keep you flying
 
 1410 users online  

4OK2 Rush Springs Airstrip
Rush Springs, Oklahoma, USA

GOING TO RUSH SPRINGS?


FAA INFORMATION EFFECTIVE 01 DECEMBER 2022

Location

FAA Identifier: 4OK2
Lat/Long: 34-48-55.3300N 097-58-27.4700W
34-48.922167N 097-58.457833W
34.8153694,-97.9742972
(estimated)
Elevation: 1410 ft. / 430 m (estimated)
From city: 2 miles N of RUSH SPRINGS, OK
Time zone: UTC -6 (UTC -5 during Daylight Saving Time)
Zip code: 73082

Airport Operations

Airport use: Private use. Permission required prior to landing
Activation date: 01/2018
Control tower: no
ARTCC: FORT WORTH CENTER
FSS: MC ALESTER FLIGHT SERVICE STATION
Attendance: UNATTND
Segmented circle: no

Airport Communications

WX AWOS-3 at CHK (17 nm N): 118.175 (405-574-1016)

Nearby radio navigation aids

VOR radial/distance  VOR name  Freq  Var
LAWr040/28.9LAWTON VOR/DME109.4009E
IRWr202/37.2WILL ROGERS VORTAC114.1007E

Airport Services

Runway Information

Runway 17/35

Dimensions: 3493 x 80 ft. / 1065 x 24 m
Surface: turf
RUNWAY 17  RUNWAY 35
Traffic pattern: leftleft

Airport Ownership and Management from official FAA records

Ownership: Privately-owned
Owner: RAYMOND RUST
4262 HWY 81
RUSH SPRINGS, OK 73055
Phone 405-820-0984
Manager: RAYMOND RUST
4262 HWY 81
RUSH SPRINGS, OK 73055
Phone 405-820-0984

Additional Remarks

FOR CD CTC FORT WORTH ARTCC AT 817-858-7584.

Instrument Procedures

There are no published instrument procedures at 4OK2.

Some nearby airports with instrument procedures:

KCHK - Chickasha Municipal Airport (17 nm N)
KDUC - Halliburton Field Airport (21 nm S)
KFSI - Henry Post Army Airfield (Fort Sill) (23 nm SW)
KLAW - Lawton-Fort Sill Regional Airport (26 nm SW)
1K4 - David Jay Perry Airport (32 nm NE)
 
Loc | Ops | Rwys | IFR | FBO | Links
Com | Nav | Svcs | Stats | Notes
Aerial photo
No photo
 
Airport distance calculator
Flying to Rush Springs Airstrip? Find the distance to fly.

From to 4OK2

Sunrise and sunset
Times for 02-Dec-2022
 Local
(UTC-6)
 Zulu
(UTC)
Morning civil twilight06:5512:55
Sunrise07:2313:23
Sunset17:2023:20
Evening civil twilight17:4723:47

Current date and time
Zulu (UTC)  02-Dec-2022 17:30:15
Local (UTC-6)  02-Dec-2022 11:30:15
 
METAR
KCHK 
17nm N 
021710Z AUTO 19013G18KT 10SM OVC007 13/12 A2993 RMK AO2 T01300119
KDUC 
21nm S 
021715Z AUTO 18009KT 2SM BR OVC003 12/ A2999 RMK AO2 T0122////
KFSI 
24nm SW 
021655Z AUTO 17008KT 10SM OVC004 12/12 A2994 RMK AO2 SLP137 T01200118
KLAW 
27nm SW 
021721Z 16005KT 10SM SCT006 OVC014 13/12 A2995 RMK AO2 T01330122
TAF
KLAW 
27nm SW 
021120Z 0212/0312 18012KT 6SM BR OVC007 FM021800 21014G25KT P6SM SCT015 FM022300 25009KT P6SM SCT250 FM030500 36017G27KT P6SM SCT250 WS020/35050KT
NOTAMs
Click for the latest NOTAMs
NOTAMs are issued by the DoD/FAA and will open in a separate window not controlled by AirNav.

 

 
 

Would you like to see your business listed on this page?

 If your business provides an interesting product or service to pilots, flight crews, aircraft, or users of the Rush Springs Airstrip, you should consider listing it here.  To start the listing process, click on the button below
 
Add a business
 

Other Pages about Rush Springs Airstrip

Update a link
 
Copyright © AirNav, LLC. All rights reserved. Privacy Policy  Contact